Lake In The Hills, Illinois
Current Conditions -  °F | °C
As of 6:52 AM on Sunday 23 Nov 2014 (Local Time) from KDPA Reporting Station
Overcast Overcast  
Wind Chill: 44°   Ceiling: 5000
Heat Index: 49°   Visibility: 10mi
Dew Point: 42°   Wind: 12mph
Humidity: 77%   Direction: 180°S
Pressure: 29.74"   Gusts: NA
Location:  42.18°N, 88.33°W
Report Text: KDPA 231252Z 18010KT 10SM SCT040 OVC050 09/06 A2974 RMK AO2 SLP071 T00940056
Loading
Personal Weather Stations






























Interactive Weather Map New forecast layout! Learn more

10-Day Weather Forecast

Advertisements
Track Severe Weather on mobile